Time;durP1;ratioP1;P1;durP2;ratioP2;P2;SDS_P1;SDS_P2;PMS_P1;PMS_P2;Temp;Humidity;BMP_temperature;BMP_pressure;BME280_temperature;BME280_humidity;BME280_pressure;Samples;Min_cycle;Max_cycle;Signal;HPM_P1;HPM_P2
2022/03/05 00:01:23;;;;;;;340.60;68.35;;;;;;;7.05;58.45;99753.72;5096644;28;20059;-77
2022/03/05 00:03:49;;;;;;;98.20;30.35;;;;;;;6.99;58.29;99752.50;5095279;28;20024;-77
2022/03/05 00:06:14;;;;;;;104.45;33.53;;;;;;;6.88;58.79;99723.69;5096284;28;20024;-77
2022/03/05 00:08:41;;;;;;;100.20;30.27;;;;;;;6.77;59.09;99752.75;5095295;28;20704;-76
2022/03/05 00:11:07;;;;;;;61.35;25.80;;;;;;;6.92;58.88;99761.91;5095961;28;20098;-77
2022/03/05 00:13:35;;;;;;;270.23;64.18;;;;;;;6.96;59.05;99758.03;5094271;28;20032;-77
2022/03/05 00:16:01;;;;;;;80.18;30.00;;;;;;;6.50;60.74;99742.06;5095966;28;20349;-77
2022/03/05 00:18:27;;;;;;;101.82;35.28;;;;;;;6.55;61.02;99750.38;5094770;28;20055;-77
2022/03/05 00:20:53;;;;;;;100.85;36.30;;;;;;;6.84;60.18;99758.31;5096305;28;20031;-77
2022/03/05 00:23:18;;;;;;;84.03;33.97;;;;;;;6.73;60.45;99740.84;5095016;28;20044;-77
2022/03/05 00:25:44;;;;;;;111.55;40.35;;;;;;;6.85;60.86;99757.34;5095227;28;20214;-77
2022/03/05 00:28:10;;;;;;;63.05;29.17;;;;;;;6.73;60.52;99759.28;5095649;28;20020;-77
2022/03/05 00:30:36;;;;;;;51.92;27.60;;;;;;;6.66;60.94;99742.38;5096198;28;20091;-77
2022/03/05 00:33:02;;;;;;;59.13;27.95;;;;;;;6.82;60.33;99760.25;5096228;28;20028;-77
2022/03/05 00:35:28;;;;;;;63.15;26.90;;;;;;;6.72;61.85;99750.53;5094490;28;20044;-76
2022/03/05 00:37:53;;;;;;;48.28;21.70;;;;;;;6.51;62.84;99744.56;5096166;28;20324;-77
2022/03/05 00:40:19;;;;;;;45.22;21.25;;;;;;;6.34;63.20;99747.84;5094315;28;20047;-77
2022/03/05 00:42:45;;;;;;;45.72;22.35;;;;;;;6.30;63.53;99746.47;5095635;28;20058;-77
2022/03/05 00:45:10;;;;;;;48.22;22.38;;;;;;;6.24;64.18;99742.56;5093336;28;20032;-77
2022/03/05 00:47:37;;;;;;;52.13;24.08;;;;;;;6.27;63.48;99747.56;5094658;28;20095;-77
2022/03/05 00:50:04;;;;;;;157.43;39.80;;;;;;;6.37;62.84;99747.59;5095101;28;20028;-77
2022/03/05 00:52:30;;;;;;;125.40;35.45;;;;;;;6.38;62.84;99736.09;5094628;28;20040;-77
2022/03/05 00:54:55;;;;;;;113.88;35.47;;;;;;;6.50;61.48;99750.78;5095313;28;20036;-77
2022/03/05 00:57:21;;;;;;;43.42;20.77;;;;;;;6.49;62.06;99753.56;5094051;28;20271;-77
2022/03/05 00:59:46;;;;;;;43.35;21.35;;;;;;;6.47;61.82;99761.59;5095053;28;20059;-77
2022/03/05 01:02:12;;;;;;;44.00;21.65;;;;;;;6.56;62.17;99758.13;5093330;28;20039;-77
2022/03/05 01:04:37;;;;;;;38.85;20.17;;;;;;;6.58;62.12;99758.00;5095213;28;20024;-77
2022/03/05 01:07:03;;;;;;;43.20;21.30;;;;;;;6.47;61.95;99739.72;5094118;28;20038;-77
2022/03/05 01:09:28;;;;;;;38.67;20.38;;;;;;;6.60;61.38;99761.34;5095596;28;20074;-76
2022/03/05 01:11:54;;;;;;;36.50;19.45;;;;;;;6.46;60.55;99727.53;5093250;28;20069;-77
2022/03/05 01:14:20;;;;;;;34.42;18.80;;;;;;;6.70;61.25;99746.38;5125565;27;20020;-77
2022/03/05 01:16:45;;;;;;;37.63;20.02;;;;;;;6.48;62.61;99749.25;5094007;28;20150;-77
2022/03/05 01:19:11;;;;;;;36.67;20.27;;;;;;;6.33;63.47;99733.88;5094227;28;20028;-77
2022/03/05 01:21:36;;;;;;;35.33;17.77;;;;;;;6.16;64.08;99723.97;5094537;28;20382;-77
2022/03/05 01:24:02;;;;;;;35.85;17.95;;;;;;;6.05;65.18;99742.47;5094706;28;20036;-77
2022/03/05 01:26:29;;;;;;;33.38;17.58;;;;;;;6.03;66.08;99758.38;5095496;28;20040;-77
2022/03/05 01:28:55;;;;;;;37.13;18.90;;;;;;;6.19;64.66;99757.06;5093916;28;20348;-77
2022/03/05 01:31:21;;;;;;;33.67;18.00;;;;;;;5.83;65.32;99734.75;5094839;28;20043;-76
2022/03/05 01:33:47;;;;;;;31.85;17.63;;;;;;;6.04;64.65;99749.53;5092855;28;20036;-77
2022/03/05 01:36:12;;;;;;;36.17;17.42;;;;;;;6.18;63.92;99750.13;5094980;28;20040;-77
2022/03/05 01:38:38;;;;;;;31.50;17.70;;;;;;;6.22;63.28;99749.72;5093929;28;20020;-77
2022/03/05 01:41:03;;;;;;;41.38;18.08;;;;;;;6.28;64.36;99762.38;5094316;28;20064;-77
2022/03/05 01:43:29;;;;;;;31.83;17.08;;;;;;;6.20;64.73;99750.81;5093047;28;20020;-77
2022/03/05 01:45:54;;;;;;;45.00;22.25;;;;;;;6.36;64.31;99754.66;5094924;28;20035;-77
2022/03/05 01:48:20;;;;;;;46.78;22.50;;;;;;;6.38;63.95;99746.63;5092671;28;20080;-77
2022/03/05 01:50:47;;;;;;;35.67;19.45;;;;;;;6.56;64.08;99766.03;5095262;28;20130;-76
2022/03/05 01:53:13;;;;;;;40.80;20.13;;;;;;;6.56;64.08;99762.56;5092468;28;21044;-77
2022/03/05 01:55:39;;;;;;;36.60;20.88;;;;;;;6.50;63.64;99756.06;5093861;28;20029;-77
2022/03/05 01:58:05;;;;;;;38.95;21.73;;;;;;;6.51;64.08;99755.09;5093906;28;20282;-77
2022/03/05 02:00:30;;;;;;;95.60;31.70;;;;;;;6.52;63.56;99755.91;5093482;28;20039;-77
2022/03/05 02:02:56;;;;;;;46.13;23.65;;;;;;;6.47;64.06;99739.72;5094142;28;20334;-77
2022/03/05 02:05:23;;;;;;;49.05;23.55;;;;;;;6.65;63.47;99752.06;5094105;28;20032;-77
2022/03/05 02:07:49;;;;;;;42.60;22.77;;;;;;;6.64;63.33;99752.19;5094345;28;20029;-77
2022/03/05 02:10:15;;;;;;;41.92;21.67;;;;;;;6.62;64.15;99767.28;5093036;28;20334;-77
2022/03/05 02:12:40;;;;;;;45.97;23.67;;;;;;;6.71;63.41;99764.66;5095539;28;20024;-77
2022/03/05 02:15:07;;;;;;;45.10;23.70;;;;;;;6.85;62.98;99763.44;5091859;28;20024;-77
2022/03/05 02:17:34;;;;;;;55.13;25.08;;;;;;;6.76;63.69;99750.28;5094794;28;20062;-77
2022/03/05 02:19:59;;;;;;;43.08;23.20;;;;;;;6.90;63.16;99766.47;5092681;28;20364;-77
2022/03/05 02:22:25;;;;;;;41.78;21.92;;;;;;;6.69;63.55;99735.03;5093695;28;20028;-77
2022/03/05 02:24:53;;;;;;;39.17;21.85;;;;;;;6.80;63.55;99759.56;5093724;28;20230;-77
2022/03/05 02:27:21;;;;;;;45.40;22.17;;;;;;;6.60;64.36;99764.78;5092417;28;20285;-77
2022/03/05 02:29:47;;;;;;;40.08;22.05;;;;;;;6.64;64.23;99745.13;5094369;28;20070;-77
2022/03/05 02:32:12;;;;;;;40.20;21.20;;;;;;;6.75;63.89;99754.69;5092331;28;20028;-77
2022/03/05 02:34:38;;;;;;;42.97;22.27;;;;;;;6.81;63.52;99756.78;5094262;28;20044;-77
2022/03/05 02:37:04;;;;;;;52.17;23.65;;;;;;;6.97;63.78;99766.75;5092546;28;20094;-77
2022/03/05 02:39:29;;;;;;;39.13;22.15;;;;;;;7.00;63.38;99759.41;5094194;28;20322;-77
2022/03/05 02:41:56;;;;;;;43.65;21.55;;;;;;;6.75;63.96;99752.06;5092487;28;20573;-77
2022/03/05 02:44:22;;;;;;;40.13;20.70;;;;;;;6.80;64.21;99751.66;5092602;28;20229;-77
2022/03/05 02:46:50;;;;;;;36.80;20.90;;;;;;;6.86;64.13;99754.56;5094388;28;20322;-77
2022/03/05 02:49:15;;;;;;;39.10;21.35;;;;;;;6.89;64.22;99772.72;5092101;28;20040;-77
2022/03/05 02:51:41;;;;;;;35.17;20.88;;;;;;;6.90;64.04;99766.47;5094657;28;20414;-77
2022/03/05 02:54:08;;;;;;;37.42;21.08;;;;;;;6.82;64.85;99758.44;5092207;28;20234;-77
2022/03/05 02:56:33;;;;;;;37.75;21.23;;;;;;;6.76;65.37;99766.88;5094610;28;20032;-77
2022/03/05 02:58:59;;;;;;;40.47;21.98;;;;;;;6.68;65.42;99749.16;5091797;28;20039;-77
2022/03/05 03:01:25;;;;;;;37.72;21.85;;;;;;;6.84;64.79;99761.78;5094469;28;20028;-77
2022/03/05 03:03:51;;;;;;;40.35;23.15;;;;;;;6.91;65.15;99770.78;5092009;28;20321;-77
2022/03/05 03:06:17;;;;;;;45.05;24.80;;;;;;;6.88;64.55;99770.22;5092711;28;20058;-77
2022/03/05 03:08:43;;;;;;;42.15;23.88;;;;;;;6.53;66.49;99770.72;5093571;28;20051;-77
2022/03/05 03:11:08;;;;;;;43.88;23.90;;;;;;;6.53;66.40;99761.03;5092433;28;20032;-77
2022/03/05 03:13:34;;;;;;;46.53;23.98;;;;;;;6.18;66.82;99739.63;5093995;28;20032;-77
2022/03/05 03:15:59;;;;;;;44.95;24.13;;;;;;;6.36;66.74;99761.69;5091801;28;20031;-77
2022/03/05 03:18:25;;;;;;;43.08;23.92;;;;;;;6.22;67.21;99769.94;5093956;28;20023;-76
2022/03/05 03:20:51;;;;;;;40.15;22.67;;;;;;;5.81;68.74;99750.66;5092125;28;20031;-76
2022/03/05 03:23:16;;;;;;;39.30;21.58;;;;;;;5.79;69.23;99773.59;5093876;28;20036;-77
2022/03/05 03:25:41;;;;;;;40.65;22.38;;;;;;;5.77;69.96;99771.09;5092221;28;20039;-77
2022/03/05 03:28:08;;;;;;;41.22;21.65;;;;;;;5.53;70.38;99772.34;5098146;28;20043;-77
2022/03/05 03:30:34;;;;;;;39.85;21.60;;;;;;;5.16;72.09;99758.81;5095465;28;20032;-77
2022/03/05 03:33:00;;;;;;;38.77;21.43;;;;;;;5.13;72.94;99762.53;5095304;28;20024;-77
2022/03/05 03:35:27;;;;;;;38.77;20.90;;;;;;;5.35;72.96;99783.44;5097256;28;20028;-77
2022/03/05 03:37:53;;;;;;;35.05;19.55;;;;;;;5.18;73.57;99778.72;5096149;28;20272;-77
2022/03/05 03:40:19;;;;;;;38.38;20.60;;;;;;;5.17;74.26;99777.06;5096591;28;20040;-77
2022/03/05 03:42:48;;;;;;;37.17;20.37;;;;;;;5.55;72.54;99794.91;5094888;28;20031;-76
2022/03/05 03:45:14;;;;;;;36.03;19.45;;;;;;;5.75;71.57;99799.31;5096346;28;20031;-77
2022/03/05 03:47:42;;;;;;;40.95;20.92;;;;;;;5.81;71.40;99795.31;5094909;28;20032;-77
2022/03/05 03:50:10;;;;;;;33.67;20.25;;;;;;;6.17;69.77;99796.63;5095148;28;20036;-77
2022/03/05 03:52:36;;;;;;;36.13;20.52;;;;;;;6.16;69.38;99773.94;5097059;28;20028;-77
2022/03/05 03:55:04;;;;;;;35.45;19.92;;;;;;;6.28;69.07;99775.53;5096261;28;20241;-77
2022/03/05 03:57:30;;;;;;;35.05;20.60;;;;;;;6.42;68.61;99776.09;5096802;28;20042;-77
2022/03/05 03:59:55;;;;;;;32.05;19.17;;;;;;;6.60;68.26;99793.72;5094877;28;20128;-77
2022/03/05 04:02:22;;;;;;;32.92;19.65;;;;;;;6.56;68.00;99792.34;5096933;28;20031;-77
2022/03/05 04:04:48;;;;;;;97.10;30.27;;;;;;;6.45;68.26;99767.94;5094458;28;20020;-77
2022/03/05 04:09:58;;;;;;;56.95;27.73;;;;;;;6.37;68.11;99781.78;5096875;28;20069;-77
2022/03/05 04:12:24;;;;;;;76.35;32.75;;;;;;;6.50;68.57;99805.19;5094984;28;20044;-77
2022/03/05 04:14:50;;;;;;;76.13;31.85;;;;;;;6.40;68.76;99808.63;5094475;28;20024;-77
2022/03/05 04:17:16;;;;;;;80.13;36.50;;;;;;;6.18;69.84;99814.06;5096052;28;20032;-77
2022/03/05 04:19:42;;;;;;;42.88;23.10;;;;;;;6.02;71.04;99818.97;5095744;28;20024;-77
2022/03/05 04:22:08;;;;;;;59.70;26.00;;;;;;;5.75;71.16;99780.09;5095500;28;20032;-77
2022/03/05 04:24:34;;;;;;;46.80;22.77;;;;;;;6.08;70.75;99813.19;5094574;28;20335;-77
2022/03/05 04:26:59;;;;;;;125.25;47.08;;;;;;;6.22;70.31;99814.63;5126020;27;20095;-77
2022/03/05 04:29:26;;;;;;;70.05;32.78;;;;;;;5.72;71.65;99796.09;5094445;28;20066;-77
2022/03/05 04:31:52;;;;;;;54.55;29.05;;;;;;;5.83;71.38;99798.66;5096777;28;20031;-77
2022/03/05 04:34:18;;;;;;;60.15;29.00;;;;;;;6.12;70.60;99821.66;5094616;28;20077;-77
2022/03/05 04:36:43;;;;;;;120.40;39.00;;;;;;;6.26;69.70;99819.53;5096405;28;20051;-77
2022/03/05 04:39:09;;;;;;;55.60;23.75;;;;;;;6.39;69.04;99827.19;5094210;28;20036;-77
2022/03/05 04:41:34;;;;;;;52.22;23.63;;;;;;;6.32;68.81;99807.63;5095562;28;20077;-77
2022/03/05 04:44:00;;;;;;;51.75;23.25;;;;;;;6.37;69.73;99813.34;5094073;28;20030;-77
2022/03/05 04:46:26;;;;;;;59.30;25.45;;;;;;;6.45;69.06;99824.03;5095987;28;20028;-77
2022/03/05 04:48:52;;;;;;;52.67;24.98;;;;;;;6.35;69.42;99817.91;5094691;28;20209;-77
2022/03/05 04:51:18;;;;;;;40.20;20.77;;;;;;;6.25;69.39;99820.50;5095062;28;20063;-77
2022/03/05 04:53:43;;;;;;;37.00;20.52;;;;;;;6.02;70.62;99827.69;5095479;28;20052;-77
2022/03/05 04:56:09;;;;;;;38.55;21.00;;;;;;;6.00;71.17;99816.47;5094761;28;20016;-77
2022/03/05 04:58:35;;;;;;;35.83;20.80;;;;;;;6.05;71.41;99823.97;5095852;28;20020;-77
2022/03/05 05:01:01;;;;;;;52.75;25.08;;;;;;;6.04;71.02;99806.53;5094091;28;20089;-77
2022/03/05 05:03:27;;;;;;;71.00;28.52;;;;;;;6.24;70.68;99825.84;5095869;28;20046;-77
2022/03/05 05:05:52;;;;;;;69.38;29.80;;;;;;;6.16;70.03;99802.84;5095133;28;20064;-77
2022/03/05 05:08:18;;;;;;;68.35;30.55;;;;;;;6.16;70.04;99807.28;5094445;28;20084;-77
2022/03/05 05:10:44;;;;;;;64.05;31.85;;;;;;;6.47;70.04;99827.34;5095461;28;20405;-77
2022/03/05 05:13:09;;;;;;;57.88;28.27;;;;;;;6.48;69.60;99834.28;5093499;28;20206;-77
2022/03/05 05:15:35;;;;;;;75.30;34.67;;;;;;;6.49;69.43;99837.72;5095110;28;20089;-77
2022/03/05 05:18:01;;;;;;;77.43;35.45;;;;;;;6.35;69.67;99821.34;5093331;28;20024;-77
2022/03/05 05:20:26;;;;;;;113.78;48.63;;;;;;;6.52;69.48;99840.09;5124638;27;20028;-77
2022/03/05 05:22:52;;;;;;;66.30;31.77;;;;;;;6.46;69.15;99833.56;5093477;28;20211;-77
2022/03/05 05:25:17;;;;;;;88.28;36.88;;;;;;;6.61;69.63;99857.72;5095196;28;20020;-77
2022/03/05 05:27:43;;;;;;;49.78;26.17;;;;;;;6.59;68.87;99855.22;5094298;28;20058;-77
2022/03/05 05:30:09;;;;;;;35.80;19.85;;;;;;;6.39;70.01;99858.75;5094213;28;20229;-77
2022/03/05 05:32:35;;;;;;;40.92;22.13;;;;;;;6.38;70.06;99854.44;5092957;28;20055;-77
2022/03/05 05:35:00;;;;;;;41.55;21.10;;;;;;;6.35;69.88;99860.81;5094210;28;20252;-77
2022/03/05 05:37:26;;;;;;;39.80;21.25;;;;;;;6.32;69.98;99860.25;5093063;28;20051;-77
2022/03/05 05:39:51;;;;;;;41.38;19.85;;;;;;;6.49;70.46;99870.13;5095306;28;20031;-77
2022/03/05 05:42:17;;;;;;;34.70;19.70;;;;;;;6.38;70.21;99873.69;5093872;28;20036;-77
2022/03/05 05:44:42;;;;;;;34.17;19.40;;;;;;;6.48;70.15;99862.38;5093727;28;20300;-77
2022/03/05 05:47:08;;;;;;;42.30;19.67;;;;;;;6.46;70.32;99874.81;5094669;28;20218;-76
2022/03/05 05:49:35;;;;;;;37.08;20.98;;;;;;;6.41;70.39;99867.34;5091964;28;20039;-77
2022/03/05 05:52:01;;;;;;;38.97;21.45;;;;;;;6.35;69.96;99879.22;5095287;28;20264;-77
2022/03/05 05:54:27;;;;;;;37.13;21.23;;;;;;;6.38;70.43;99873.69;5093070;28;20191;-77
2022/03/05 05:56:52;;;;;;;43.25;22.73;;;;;;;6.28;70.67;99864.09;5095157;28;20031;-77
2022/03/05 05:59:18;;;;;;;36.05;21.27;;;;;;;6.37;69.87;99894.88;5092521;28;20234;-77
2022/03/05 06:01:43;;;;;;;41.10;21.65;;;;;;;6.17;69.90;99872.88;5093121;28;20074;-77
2022/03/05 06:04:09;;;;;;;40.45;20.83;;;;;;;6.31;71.12;99898.00;5094320;28;20040;-77
2022/03/05 06:06:34;;;;;;;43.65;21.48;;;;;;;6.42;70.67;99897.94;5093349;28;20099;-77
2022/03/05 06:09:00;;;;;;;43.13;22.55;;;;;;;6.67;69.97;99894.84;5093848;28;20042;-77
2022/03/05 06:11:26;;;;;;;64.38;25.65;;;;;;;6.77;70.90;99896.69;5093203;28;20020;-77
2022/03/05 06:13:51;;;;;;;69.75;26.63;;;;;;;6.81;71.08;99895.44;5094774;28;20047;-77
2022/03/05 06:16:16;;;;;;;52.47;24.75;;;;;;;6.81;71.16;99896.28;5092806;28;20024;-77
2022/03/05 06:18:42;;;;;;;50.47;26.48;;;;;;;6.86;71.67;99896.69;5094599;28;20092;-77
2022/03/05 06:21:08;;;;;;;66.63;29.38;;;;;;;7.00;70.83;99896.31;5092746;28;20040;-77
2022/03/05 06:23:35;;;;;;;59.50;31.05;;;;;;;7.01;71.21;99889.25;5093896;28;20114;-77
2022/03/05 06:26:00;;;;;;;53.58;27.35;;;;;;;7.04;70.21;99899.50;5093638;28;20444;-77
2022/03/05 06:28:26;;;;;;;64.47;34.92;;;;;;;7.04;69.54;99902.16;5093062;28;20024;-77
2022/03/05 06:30:51;;;;;;;115.95;54.15;;;;;;;7.15;69.71;99902.03;5093240;28;20052;-77
2022/03/05 06:33:17;;;;;;;104.13;47.15;;;;;;;7.24;69.12;99892.47;5093041;28;20213;-77
2022/03/05 06:35:43;;;;;;;113.07;60.63;;;;;;;7.27;68.91;99898.28;5093861;28;20090;-77
2022/03/05 06:38:09;;;;;;;81.53;40.92;;;;;;;7.44;66.88;99910.00;5092823;28;20099;-77
2022/03/05 06:40:34;;;;;;;67.65;35.22;;;;;;;7.67;66.56;99921.09;5093577;28;20036;-77
2022/03/05 06:43:00;;;;;;;54.50;28.67;;;;;;;7.65;66.38;99905.41;5090569;28;20036;-77
2022/03/05 06:45:26;;;;;;;79.78;33.13;;;;;;;7.66;66.71;99924.69;5093889;28;20024;-77
2022/03/05 06:47:52;;;;;;;133.40;43.15;;;;;;;7.63;67.18;99919.69;5092434;28;20194;-77
2022/03/05 06:50:18;;;;;;;139.82;45.17;;;;;;;7.73;65.90;99935.50;5093440;28;20039;-77
2022/03/05 06:52:43;;;;;;;36.90;20.27;;;;;;;7.76;62.37;99924.69;5092796;28;20439;-77
2022/03/05 06:55:13;;;;;;;33.45;20.58;;;;;;;7.83;62.98;99938.97;5094693;28;20069;-77
2022/03/05 06:57:39;;;;;;;35.85;20.75;;;;;;;7.95;62.59;99943.13;5094282;28;20024;-77
2022/03/05 07:00:05;;;;;;;33.08;19.20;;;;;;;7.88;63.06;99929.66;5093465;28;20203;-77
2022/03/05 07:02:31;;;;;;;38.33;19.75;;;;;;;7.94;62.35;99941.47;5097849;28;20036;-77
2022/03/05 07:04:56;;;;;;;34.53;19.08;;;;;;;8.00;62.64;99948.81;5096034;28;20039;-77
2022/03/05 07:07:22;;;;;;;32.00;18.98;;;;;;;8.10;61.71;99927.69;5096719;28;20028;-77
2022/03/05 07:09:47;;;;;;;35.35;20.45;;;;;;;8.02;62.19;99936.31;5095957;28;20325;-77
2022/03/05 07:12:13;;;;;;;39.35;21.95;;;;;;;8.14;62.87;99953.66;5097883;28;20024;-77
2022/03/05 07:14:38;;;;;;;62.40;32.85;;;;;;;8.13;62.04;99956.44;5095477;28;20036;-77
2022/03/05 07:17:04;;;;;;;53.95;28.25;;;;;;;7.96;64.33;99935.06;5098123;28;20051;-77
2022/03/05 07:19:30;;;;;;;64.82;30.17;;;;;;;8.06;64.45;99932.41;5095981;28;20032;-77
2022/03/05 07:21:55;;;;;;;117.35;48.45;;;;;;;7.98;65.85;99958.66;5096930;28;20034;-77
2022/03/05 07:24:21;;;;;;;50.05;27.52;;;;;;;8.04;66.12;99958.09;5097399;28;20033;-77
2022/03/05 07:26:47;;;;;;;90.30;36.08;;;;;;;7.96;67.48;99956.16;5095901;28;20099;-77
2022/03/05 07:29:13;;;;;;;46.85;23.90;;;;;;;7.87;65.66;99949.09;5097585;28;20109;-77
2022/03/05 07:31:38;;;;;;;48.47;25.20;;;;;;;7.93;68.07;99956.44;5096145;28;20031;-78
2022/03/05 07:34:04;;;;;;;41.72;23.67;;;;;;;7.81;66.28;99940.91;5097128;28;20349;-78
2022/03/05 07:36:30;;;;;;;95.57;38.83;;;;;;;7.91;67.41;99963.66;5095655;28;20042;-77
2022/03/05 07:38:56;;;;;;;73.60;33.03;;;;;;;7.92;67.90;99959.22;5096564;28;20020;-77
2022/03/05 07:41:22;;;;;;;86.40;36.90;;;;;;;8.09;67.07;99955.03;5095732;28;20032;-77
2022/03/05 07:43:47;;;;;;;46.33;24.00;;;;;;;8.12;66.44;99936.31;5097413;28;20081;-75
2022/03/05 07:46:13;;;;;;;39.70;22.05;;;;;;;8.19;68.21;99956.69;5095638;28;20032;-76
2022/03/05 07:48:38;;;;;;;43.17;23.42;;;;;;;8.19;68.42;99948.78;5126982;27;20017;-76
2022/03/05 07:51:04;;;;;;;38.58;22.13;;;;;;;8.26;68.10;99956.97;5100778;28;20266;-77
2022/03/05 07:53:33;;;;;;;34.30;21.48;;;;;;;8.20;68.33;99953.09;5101907;28;20024;-77
2022/03/05 07:55:58;;;;;;;37.83;21.45;;;;;;;8.28;67.62;99957.66;5101526;28;20055;-76
2022/03/05 07:58:24;;;;;;;37.28;21.70;;;;;;;8.37;66.75;99959.50;5101906;28;20023;-77
2022/03/05 08:00:50;;;;;;;35.25;21.02;;;;;;;8.32;65.31;99938.78;5102270;28;20085;-77
2022/03/05 08:03:15;;;;;;;39.45;23.65;;;;;;;8.46;64.17;99942.81;5100647;28;20036;-77
2022/03/05 08:05:43;;;;;;;45.95;23.80;;;;;;;8.41;63.96;99952.97;5101090;28;20340;-77
2022/03/05 08:08:08;;;;;;;43.17;24.63;;;;;;;8.37;64.84;99958.66;5101183;28;20031;-77
2022/03/05 08:10:34;;;;;;;43.95;25.33;;;;;;;8.33;65.34;99960.75;5099935;28;20095;-77
2022/03/05 08:12:59;;;;;;;51.63;27.05;;;;;;;8.41;65.27;99965.31;5099971;28;20039;-77
2022/03/05 08:15:25;;;;;;;68.65;34.38;;;;;;;8.13;66.48;99962.53;5099748;28;20016;-77
2022/03/05 08:17:53;;;;;;;62.20;28.55;;;;;;;8.12;65.80;99965.31;5101278;28;20027;-77
2022/03/05 08:20:19;;;;;;;54.15;28.73;;;;;;;8.04;66.63;99954.63;5100045;28;20063;-77
2022/03/05 08:22:45;;;;;;;57.85;30.05;;;;;;;7.88;69.63;99958.66;5102497;28;20024;-77
2022/03/05 08:25:11;;;;;;;62.88;30.90;;;;;;;7.97;71.10;99975.47;5098884;28;20076;-77
2022/03/05 08:27:36;;;;;;;60.08;32.78;;;;;;;8.13;70.75;99973.09;5099612;28;20016;-77
2022/03/05 08:30:03;;;;;;;57.78;29.60;;;;;;;8.16;70.54;99950.88;5100224;28;20050;-77
2022/03/05 08:32:28;;;;;;;51.00;27.63;;;;;;;8.36;69.13;99962.28;5096458;28;20093;-77
2022/03/05 08:34:54;;;;;;;52.67;26.85;;;;;;;8.33;69.94;99963.41;5101426;28;20036;-77
2022/03/05 08:37:20;;;;;;;46.67;25.48;;;;;;;8.40;69.85;99969.75;5101007;28;20326;-77
2022/03/05 08:39:45;;;;;;;48.78;27.80;;;;;;;8.43;70.54;99961.56;5099474;28;20229;-77
2022/03/05 08:42:10;;;;;;;59.90;30.75;;;;;;;8.23;71.72;99944.88;5098532;28;20028;-77
2022/03/05 08:44:36;;;;;;;52.00;30.60;;;;;;;8.39;70.79;99972.53;5101510;28;20028;-77
2022/03/05 08:47:02;;;;;;;51.63;29.60;;;;;;;8.42;69.13;99959.91;5101080;28;20054;-77
2022/03/05 08:49:28;;;;;;;51.25;30.55;;;;;;;8.70;69.03;99970.50;5101028;28;20028;-77
2022/03/05 08:51:53;;;;;;;48.38;27.48;;;;;;;8.64;69.48;99970.09;5100639;28;20058;-78
2022/03/05 08:54:20;;;;;;;45.75;26.95;;;;;;;8.75;68.14;99971.75;5101622;28;20032;-78
2022/03/05 08:56:46;;;;;;;46.42;26.20;;;;;;;8.58;71.03;99956.66;5100047;28;20019;-77
2022/03/05 08:59:12;;;;;;;42.83;25.58;;;;;;;8.62;70.35;99963.31;5100121;28;20054;-77
2022/03/05 09:01:38;;;;;;;84.30;39.95;;;;;;;8.81;70.44;99976.44;5099533;28;20059;-77
2022/03/05 09:04:04;;;;;;;49.25;27.30;;;;;;;8.72;70.08;99977.31;5099220;28;20032;-77
2022/03/05 09:06:30;;;;;;;47.55;26.98;;;;;;;8.62;71.26;99985.25;5099308;28;20035;-77
2022/03/05 09:08:56;;;;;;;44.83;27.05;;;;;;;8.67;71.18;99981.34;5099792;28;20035;-77
2022/03/05 09:11:22;;;;;;;46.33;25.98;;;;;;;8.56;71.26;99988.47;5101130;28;20218;-77
2022/03/05 09:13:48;;;;;;;40.72;23.77;;;;;;;8.54;73.18;99985.16;5099776;28;20039;-77
2022/03/05 09:16:15;;;;;;;46.97;25.55;;;;;;;8.26;73.44;99985.97;5098021;28;20066;-77
2022/03/05 09:18:40;;;;;;;42.25;25.42;;;;;;;8.10;75.16;99981.28;5101073;28;20017;-77
2022/03/05 09:21:06;;;;;;;42.45;25.38;;;;;;;8.11;75.69;99979.47;5100565;28;20329;-77
2022/03/05 09:23:31;;;;;;;48.92;28.60;;;;;;;7.97;75.06;99972.81;5099259;28;20105;-77
2022/03/05 09:25:57;;;;;;;51.03;28.70;;;;;;;7.96;77.55;99990.44;5101082;28;20050;-77
2022/03/05 09:28:22;;;;;;;51.47;29.73;;;;;;;7.88;79.71;99997.38;5098656;28;20028;-77
2022/03/05 09:30:48;;;;;;;52.08;29.65;;;;;;;8.13;79.11;99988.06;5100266;28;20087;-77
2022/03/05 09:33:13;;;;;;;49.30;29.17;;;;;;;8.11;77.55;99967.13;5099282;28;20026;-77
2022/03/05 09:35:39;;;;;;;49.58;29.80;;;;;;;8.15;78.50;99989.59;5099370;28;20087;-76
2022/03/05 09:38:05;;;;;;;61.67;35.78;;;;;;;8.00;79.07;99991.84;5099878;28;20102;-77
2022/03/05 09:40:31;;;;;;;53.97;33.97;;;;;;;8.27;78.61;99982.38;5098040;28;20043;-77
2022/03/05 09:42:59;;;;;;;55.50;31.88;;;;;;;8.00;80.40;99996.28;5098856;28;20329;-77
2022/03/05 09:45:24;;;;;;;45.40;26.33;;;;;;;7.87;78.66;99993.91;5097769;28;20020;-77
2022/03/05 09:47:50;;;;;;;47.60;25.17;;;;;;;7.88;77.39;99992.94;5099824;28;20020;-77
2022/03/05 09:50:15;;;;;;;48.92;28.90;;;;;;;7.97;77.23;99976.28;5100486;28;20355;-77
2022/03/05 09:52:41;;;;;;;47.33;27.55;;;;;;;8.18;77.65;100002.50;5098516;28;20274;-77
2022/03/05 09:55:07;;;;;;;47.60;29.00;;;;;;;8.03;80.04;100006.53;5100914;28;20036;-76
2022/03/05 09:57:33;;;;;;;40.25;25.70;;;;;;;8.02;78.32;99976.72;5098721;28;20048;-77
2022/03/05 09:59:59;;;;;;;42.35;25.65;;;;;;;8.09;80.36;99991.97;5099329;28;20040;-77
2022/03/05 10:02:25;;;;;;;49.25;28.17;;;;;;;8.29;79.20;99981.25;5098380;28;20069;-77
2022/03/05 10:05:12;;;;;;;43.72;26.13;;;;;;;8.56;78.51;99980.56;5098678;28;20036;-77
2022/03/05 10:07:37;;;;;;;47.78;26.13;;;;;;;8.70;78.03;99973.97;5094724;28;20028;-77
2022/03/05 10:10:08;;;;;;;40.15;24.30;;;;;;;8.64;76.17;99971.91;5094752;28;20354;-77
2022/03/05 10:12:34;;;;;;;38.28;22.88;;;;;;;8.63;75.77;99962.34;5092789;28;20035;-77
2022/03/05 10:15:05;;;;;;;48.60;27.05;;;;;;;8.61;77.43;99959.00;5094461;28;20030;-77
2022/03/05 10:17:49;;;;;;;46.00;25.95;;;;;;;8.63;77.13;99957.06;5094152;28;20046;-77
2022/03/05 10:20:14;;;;;;;42.95;25.38;;;;;;;8.52;77.99;99947.50;5094144;28;20353;-77
2022/03/05 10:22:53;;;;;;;49.17;27.98;;;;;;;8.67;78.89;99957.59;5092710;28;20393;-78
2022/03/05 10:25:31;;;;;;;48.47;28.67;;;;;;;8.68;78.54;99940.78;5090974;28;20081;-78
2022/03/05 10:28:15;;;;;;;41.95;24.77;;;;;;;8.79;76.49;99949.34;5092507;28;20028;-78
2022/03/05 10:30:42;;;;;;;;;;;;;;;9.04;73.86;99953.13;5093980;28;20023;-77
2022/03/05 10:33:22;;;;;;;30.42;18.45;;;;;;;9.10;71.94;99952.53;5094503;28;19979;-77
2022/03/05 10:35:47;;;;;;;31.55;20.30;;;;;;;9.09;71.38;99947.41;5094206;28;20028;-77
2022/03/05 10:38:12;;;;;;;35.20;21.65;;;;;;;9.42;71.08;99953.91;5097489;28;20673;-78
2022/03/05 10:40:38;;;;;;;34.05;21.33;;;;;;;9.56;71.37;99956.03;5097013;28;20230;-77
2022/03/05 10:43:05;;;;;;;33.30;19.92;;;;;;;9.65;68.97;99951.66;5096101;28;20036;-77
2022/03/05 10:45:49;;;;;;;41.65;22.02;;;;;;;9.83;66.68;99949.81;5098045;28;20035;-77
2022/03/05 10:48:32;;;;;;;31.02;18.40;;;;;;;10.05;64.30;99956.44;5097761;28;20099;-77
2022/03/05 10:51:04;;;;;;;41.60;22.77;;;;;;;10.08;65.59;99938.47;5096583;28;20797;-78
2022/03/05 10:53:46;;;;;;;46.60;24.70;;;;;;;10.23;66.61;99954.63;5094533;28;20348;-78
2022/03/05 10:56:31;;;;;;;32.35;21.00;;;;;;;10.21;66.68;99957.44;5097555;28;20036;-77
2022/03/05 10:59:11;;;;;;;36.53;21.27;;;;;;;10.46;65.77;99958.47;5097628;28;20251;-77
2022/03/05 11:01:43;;;;;;;32.30;20.15;;;;;;;10.24;66.31;99956.31;5097460;28;20052;-77
2022/03/05 11:04:11;;;;;;;27.83;18.65;;;;;;;10.48;63.76;99953.00;5096214;28;20032;-77
2022/03/05 11:06:39;;;;;;;36.03;19.55;;;;;;;10.66;62.25;99945.84;5098133;28;20024;-77
2022/03/05 11:09:06;;;;;;;27.08;17.58;;;;;;;10.53;61.09;99946.25;5096098;28;20038;-77
2022/03/05 11:11:35;;;;;;;23.92;16.02;;;;;;;10.65;59.99;99946.81;5097624;28;20027;-78
2022/03/05 11:14:01;;;;;;;27.02;17.15;;;;;;;10.42;59.31;99924.53;5097667;28;20044;-78
2022/03/05 11:16:26;;;;;;;29.77;17.42;;;;;;;10.73;58.35;99941.56;5096884;28;20105;-78
2022/03/05 11:18:52;;;;;;;27.52;17.00;;;;;;;10.45;59.64;99919.75;5096738;28;20051;-77
2022/03/05 11:21:18;;;;;;;42.85;21.67;;;;;;;10.40;63.09;99926.47;5096993;28;20028;-78
2022/03/05 11:23:44;;;;;;;29.92;18.20;;;;;;;10.57;60.81;99938.84;5096618;28;20067;-78